sensor_id;sensor_type;location;lat;lon;timestamp;pressure;altitude;pressure_sealevel;temperature
76394;BMP180;65216;51.090;-115.352;2023-03-14T00:01:23;85103.40;;;21.20
76394;BMP180;65216;51.090;-115.352;2023-03-14T00:03:51;85098.00;;;21.20
76394;BMP180;65216;51.090;-115.352;2023-03-14T00:06:22;85121.80;;;21.20
76394;BMP180;65216;51.090;-115.352;2023-03-14T00:08:49;85098.20;;;21.22
76394;BMP180;65216;51.090;-115.352;2023-03-14T00:11:21;85107.20;;;21.28
76394;BMP180;65216;51.090;-115.352;2023-03-14T00:13:54;85110.00;;;21.20
76394;BMP180;65216;51.090;-115.352;2023-03-14T00:16:23;85100.20;;;21.20
76394;BMP180;65216;51.090;-115.352;2023-03-14T00:18:51;85101.40;;;21.20
76394;BMP180;65216;51.090;-115.352;2023-03-14T00:21:20;85105.20;;;21.20
76394;BMP180;65216;51.090;-115.352;2023-03-14T00:23:53;85089.20;;;21.20
76394;BMP180;65216;51.090;-115.352;2023-03-14T00:26:21;85071.80;;;21.20
76394;BMP180;65216;51.090;-115.352;2023-03-14T00:28:53;85072.00;;;21.20
76394;BMP180;65216;51.090;-115.352;2023-03-14T00:31:22;85076.80;;;21.20
76394;BMP180;65216;51.090;-115.352;2023-03-14T00:33:56;85098.60;;;21.20
76394;BMP180;65216;51.090;-115.352;2023-03-14T00:36:24;85091.20;;;21.20
76394;BMP180;65216;51.090;-115.352;2023-03-14T00:38:54;85091.60;;;21.20
76394;BMP180;65216;51.090;-115.352;2023-03-14T00:41:23;85086.40;;;21.20
76394;BMP180;65216;51.090;-115.352;2023-03-14T00:43:54;85070.20;;;21.20
76394;BMP180;65216;51.090;-115.352;2023-03-14T00:46:21;85076.00;;;21.20
76394;BMP180;65216;51.090;-115.352;2023-03-14T00:48:49;85074.60;;;21.20
76394;BMP180;65216;51.090;-115.352;2023-03-14T00:51:16;85066.40;;;21.20
76394;BMP180;65216;51.090;-115.352;2023-03-14T00:53:46;85062.80;;;21.20
76394;BMP180;65216;51.090;-115.352;2023-03-14T00:56:14;85076.00;;;21.20
76394;BMP180;65216;51.090;-115.352;2023-03-14T00:58:42;85061.40;;;21.20
76394;BMP180;65216;51.090;-115.352;2023-03-14T01:01:14;85065.00;;;21.20
76394;BMP180;65216;51.090;-115.352;2023-03-14T01:03:42;85069.80;;;21.20
76394;BMP180;65216;51.090;-115.352;2023-03-14T01:06:14;85054.60;;;21.20
76394;BMP180;65216;51.090;-115.352;2023-03-14T01:08:43;85072.40;;;21.20
76394;BMP180;65216;51.090;-115.352;2023-03-14T01:11:17;85062.00;;;21.20
76394;BMP180;65216;51.090;-115.352;2023-03-14T01:13:45;85051.00;;;21.20
76394;BMP180;65216;51.090;-115.352;2023-03-14T01:16:14;85059.20;;;21.16
76394;BMP180;65216;51.090;-115.352;2023-03-14T01:18:43;85058.00;;;21.10
76394;BMP180;65216;51.090;-115.352;2023-03-14T01:21:17;85034.20;;;21.10
76394;BMP180;65216;51.090;-115.352;2023-03-14T01:23:45;85039.80;;;21.10
76394;BMP180;65216;51.090;-115.352;2023-03-14T01:26:16;85029.00;;;21.10
76394;BMP180;65216;51.090;-115.352;2023-03-14T01:28:49;85036.40;;;21.10
76394;BMP180;65216;51.090;-115.352;2023-03-14T01:31:17;85035.80;;;21.10
76394;BMP180;65216;51.090;-115.352;2023-03-14T01:33:48;85032.40;;;21.10
76394;BMP180;65216;51.090;-115.352;2023-03-14T01:36:17;85032.20;;;21.10
76394;BMP180;65216;51.090;-115.352;2023-03-14T01:38:48;85038.60;;;21.10
76394;BMP180;65216;51.090;-115.352;2023-03-14T01:41:22;85041.60;;;21.10
76394;BMP180;65216;51.090;-115.352;2023-03-14T01:43:51;85035.40;;;21.10
76394;BMP180;65216;51.090;-115.352;2023-03-14T01:46:36;85040.20;;;21.10
76394;BMP180;65216;51.090;-115.352;2023-03-14T01:52:14;85027.20;;;21.10
76394;BMP180;65216;51.090;-115.352;2023-03-14T01:55:06;85024.80;;;21.10
76394;BMP180;65216;51.090;-115.352;2023-03-14T02:00:13;85014.80;;;21.00
76394;BMP180;65216;51.090;-115.352;2023-03-14T02:02:48;85010.60;;;21.00
76394;BMP180;65216;51.090;-115.352;2023-03-14T02:05:24;85028.00;;;21.04
76394;BMP180;65216;51.090;-115.352;2023-03-14T02:07:58;85012.60;;;21.08
76394;BMP180;65216;51.090;-115.352;2023-03-14T02:10:32;85011.20;;;21.10
76394;BMP180;65216;51.090;-115.352;2023-03-14T02:13:04;85019.60;;;21.10
76394;BMP180;65216;51.090;-115.352;2023-03-14T02:15:35;85012.00;;;21.04
76394;BMP180;65216;51.090;-115.352;2023-03-14T02:18:04;85005.20;;;21.00
76394;BMP180;65216;51.090;-115.352;2023-03-14T02:21:38;85012.40;;;21.00
76394;BMP180;65216;51.090;-115.352;2023-03-14T02:24:39;85004.20;;;21.02
76394;BMP180;65216;51.090;-115.352;2023-03-14T02:27:24;85002.00;;;21.00
76394;BMP180;65216;51.090;-115.352;2023-03-14T02:30:13;85001.60;;;21.00
76394;BMP180;65216;51.090;-115.352;2023-03-14T02:32:48;84995.40;;;21.00
76394;BMP180;65216;51.090;-115.352;2023-03-14T02:35:27;85001.40;;;21.00
76394;BMP180;65216;51.090;-115.352;2023-03-14T02:38:07;85001.80;;;21.00
76394;BMP180;65216;51.090;-115.352;2023-03-14T02:40:38;85010.80;;;21.00
76394;BMP180;65216;51.090;-115.352;2023-03-14T02:43:07;85007.40;;;21.00
76394;BMP180;65216;51.090;-115.352;2023-03-14T02:45:48;85007.00;;;21.00
76394;BMP180;65216;51.090;-115.352;2023-03-14T02:48:20;84996.20;;;21.00
76394;BMP180;65216;51.090;-115.352;2023-03-14T02:50:58;84993.80;;;21.00
76394;BMP180;65216;51.090;-115.352;2023-03-14T02:53:32;84995.00;;;21.00
76394;BMP180;65216;51.090;-115.352;2023-03-14T02:56:00;84996.60;;;21.00
76394;BMP180;65216;51.090;-115.352;2023-03-14T02:58:28;84989.00;;;21.00
76394;BMP180;65216;51.090;-115.352;2023-03-14T03:00:58;84995.40;;;21.00
76394;BMP180;65216;51.090;-115.352;2023-03-14T03:03:26;84992.40;;;21.00
76394;BMP180;65216;51.090;-115.352;2023-03-14T03:05:55;84985.20;;;21.00
76394;BMP180;65216;51.090;-115.352;2023-03-14T03:08:25;84978.60;;;21.00
76394;BMP180;65216;51.090;-115.352;2023-03-14T03:10:53;84979.00;;;21.00
76394;BMP180;65216;51.090;-115.352;2023-03-14T03:13:20;84971.40;;;21.00
76394;BMP180;65216;51.090;-115.352;2023-03-14T03:15:48;84967.60;;;21.00
76394;BMP180;65216;51.090;-115.352;2023-03-14T03:18:15;84968.00;;;21.00
76394;BMP180;65216;51.090;-115.352;2023-03-14T03:20:45;84975.60;;;21.00
76394;BMP180;65216;51.090;-115.352;2023-03-14T03:23:15;84982.20;;;21.00
76394;BMP180;65216;51.090;-115.352;2023-03-14T03:25:52;84962.80;;;21.00
76394;BMP180;65216;51.090;-115.352;2023-03-14T03:28:19;84969.40;;;21.00
76394;BMP180;65216;51.090;-115.352;2023-03-14T03:30:52;84956.00;;;21.00
76394;BMP180;65216;51.090;-115.352;2023-03-14T03:33:23;84956.40;;;21.00
76394;BMP180;65216;51.090;-115.352;2023-03-14T03:35:54;84941.20;;;21.00
76394;BMP180;65216;51.090;-115.352;2023-03-14T03:38:21;84934.80;;;21.00
76394;BMP180;65216;51.090;-115.352;2023-03-14T03:40:48;84931.40;;;21.00
76394;BMP180;65216;51.090;-115.352;2023-03-14T03:43:16;84946.00;;;21.00
76394;BMP180;65216;51.090;-115.352;2023-03-14T03:45:44;84945.60;;;21.00
76394;BMP180;65216;51.090;-115.352;2023-03-14T03:48:12;84942.60;;;21.00
76394;BMP180;65216;51.090;-115.352;2023-03-14T03:50:46;84937.80;;;21.00
76394;BMP180;65216;51.090;-115.352;2023-03-14T03:53:13;84934.80;;;21.00
76394;BMP180;65216;51.090;-115.352;2023-03-14T03:55:44;84923.60;;;21.00
76394;BMP180;65216;51.090;-115.352;2023-03-14T03:58:16;84927.80;;;21.00
76394;BMP180;65216;51.090;-115.352;2023-03-14T04:00:43;84934.00;;;21.00
76394;BMP180;65216;51.090;-115.352;2023-03-14T04:03:11;84931.20;;;21.00
76394;BMP180;65216;51.090;-115.352;2023-03-14T04:05:41;84923.80;;;21.00
76394;BMP180;65216;51.090;-115.352;2023-03-14T04:08:13;84930.00;;;21.00
76394;BMP180;65216;51.090;-115.352;2023-03-14T04:10:46;84920.80;;;21.00
76394;BMP180;65216;51.090;-115.352;2023-03-14T04:13:18;84920.80;;;21.00
76394;BMP180;65216;51.090;-115.352;2023-03-14T04:15:45;84926.40;;;21.00
76394;BMP180;65216;51.090;-115.352;2023-03-14T04:18:16;84932.80;;;21.00
76394;BMP180;65216;51.090;-115.352;2023-03-14T04:20:50;84937.80;;;20.92
76394;BMP180;65216;51.090;-115.352;2023-03-14T04:23:17;84941.60;;;20.90
76394;BMP180;65216;51.090;-115.352;2023-03-14T04:25:45;84942.20;;;20.90
76394;BMP180;65216;51.090;-115.352;2023-03-14T04:28:12;84944.60;;;20.92
76394;BMP180;65216;51.090;-115.352;2023-03-14T04:30:42;84944.40;;;20.90
76394;BMP180;65216;51.090;-115.352;2023-03-14T04:33:12;84938.00;;;20.90
76394;BMP180;65216;51.090;-115.352;2023-03-14T04:35:52;84934.80;;;20.90
76394;BMP180;65216;51.090;-115.352;2023-03-14T04:38:20;84927.80;;;20.90
76394;BMP180;65216;51.090;-115.352;2023-03-14T04:40:50;84922.20;;;20.90
76394;BMP180;65216;51.090;-115.352;2023-03-14T04:43:17;84924.00;;;20.90
76394;BMP180;65216;51.090;-115.352;2023-03-14T04:45:45;84922.40;;;20.90
76394;BMP180;65216;51.090;-115.352;2023-03-14T04:48:15;84921.20;;;20.90
76394;BMP180;65216;51.090;-115.352;2023-03-14T04:50:46;84920.40;;;20.90
76394;BMP180;65216;51.090;-115.352;2023-03-14T04:53:18;84921.60;;;20.90
76394;BMP180;65216;51.090;-115.352;2023-03-14T04:55:51;84913.20;;;20.90
76394;BMP180;65216;51.090;-115.352;2023-03-14T04:58:19;84908.80;;;20.90
76394;BMP180;65216;51.090;-115.352;2023-03-14T05:00:47;84910.60;;;20.90
76394;BMP180;65216;51.090;-115.352;2023-03-14T05:03:19;84913.80;;;20.90
76394;BMP180;65216;51.090;-115.352;2023-03-14T05:05:52;84914.00;;;20.90
76394;BMP180;65216;51.090;-115.352;2023-03-14T05:08:19;84913.40;;;20.90
76394;BMP180;65216;51.090;-115.352;2023-03-14T05:10:53;84909.60;;;20.90
76394;BMP180;65216;51.090;-115.352;2023-03-14T05:13:24;84897.20;;;20.90
76394;BMP180;65216;51.090;-115.352;2023-03-14T05:15:51;84889.20;;;20.90
76394;BMP180;65216;51.090;-115.352;2023-03-14T05:18:21;84888.40;;;20.88
76394;BMP180;65216;51.090;-115.352;2023-03-14T05:20:51;84882.20;;;20.88
76394;BMP180;65216;51.090;-115.352;2023-03-14T05:23:24;84887.40;;;20.90
76394;BMP180;65216;51.090;-115.352;2023-03-14T05:25:54;84897.40;;;20.90
76394;BMP180;65216;51.090;-115.352;2023-03-14T05:28:23;84895.80;;;20.88
76394;BMP180;65216;51.090;-115.352;2023-03-14T05:30:53;84891.00;;;20.90
76394;BMP180;65216;51.090;-115.352;2023-03-14T05:33:21;84890.00;;;20.84
76394;BMP180;65216;51.090;-115.352;2023-03-14T05:35:53;84873.00;;;20.84
76394;BMP180;65216;51.090;-115.352;2023-03-14T05:38:25;84866.80;;;20.82
76394;BMP180;65216;51.090;-115.352;2023-03-14T05:40:55;84876.00;;;20.80
76394;BMP180;65216;51.090;-115.352;2023-03-14T05:43:23;84890.20;;;20.80
76394;BMP180;65216;51.090;-115.352;2023-03-14T05:45:53;84901.40;;;20.80
76394;BMP180;65216;51.090;-115.352;2023-03-14T05:48:20;84901.00;;;20.80
76394;BMP180;65216;51.090;-115.352;2023-03-14T05:50:54;84914.80;;;20.80
76394;BMP180;65216;51.090;-115.352;2023-03-14T05:53:24;84897.00;;;20.80
76394;BMP180;65216;51.090;-115.352;2023-03-14T05:55:57;84850.00;;;20.80
76394;BMP180;65216;51.090;-115.352;2023-03-14T05:58:24;84883.80;;;20.80
76394;BMP180;65216;51.090;-115.352;2023-03-14T06:00:54;84909.60;;;20.80
76394;BMP180;65216;51.090;-115.352;2023-03-14T06:03:21;84902.00;;;20.80
76394;BMP180;65216;51.090;-115.352;2023-03-14T06:05:52;84941.20;;;20.80
76394;BMP180;65216;51.090;-115.352;2023-03-14T06:08:19;84954.20;;;20.80
76394;BMP180;65216;51.090;-115.352;2023-03-14T06:10:46;84938.60;;;20.80
76394;BMP180;65216;51.090;-115.352;2023-03-14T06:13:14;84895.40;;;20.80
76394;BMP180;65216;51.090;-115.352;2023-03-14T06:15:45;84865.20;;;20.80
76394;BMP180;65216;51.090;-115.352;2023-03-14T06:18:12;84885.00;;;20.80
76394;BMP180;65216;51.090;-115.352;2023-03-14T06:20:43;84902.00;;;20.80
76394;BMP180;65216;51.090;-115.352;2023-03-14T06:23:10;84886.00;;;20.80
76394;BMP180;65216;51.090;-115.352;2023-03-14T06:25:38;84904.00;;;20.80
76394;BMP180;65216;51.090;-115.352;2023-03-14T06:28:05;84899.40;;;20.80
76394;BMP180;65216;51.090;-115.352;2023-03-14T06:30:32;84920.00;;;20.78
76394;BMP180;65216;51.090;-115.352;2023-03-14T06:32:59;84929.60;;;20.70
76394;BMP180;65216;51.090;-115.352;2023-03-14T06:35:30;84915.80;;;20.70
76394;BMP180;65216;51.090;-115.352;2023-03-14T06:37:57;84926.40;;;20.70
76394;BMP180;65216;51.090;-115.352;2023-03-14T06:40:25;84909.60;;;20.70
76394;BMP180;65216;51.090;-115.352;2023-03-14T06:42:52;84882.00;;;20.70
76394;BMP180;65216;51.090;-115.352;2023-03-14T06:45:23;84894.80;;;20.64
76394;BMP180;65216;51.090;-115.352;2023-03-14T06:47:50;84914.40;;;20.60
76394;BMP180;65216;51.090;-115.352;2023-03-14T06:50:18;84924.80;;;20.60
76394;BMP180;65216;51.090;-115.352;2023-03-14T06:52:45;84906.00;;;20.60
76394;BMP180;65216;51.090;-115.352;2023-03-14T06:55:17;84900.80;;;20.60
76394;BMP180;65216;51.090;-115.352;2023-03-14T06:57:44;84895.80;;;20.60
76394;BMP180;65216;51.090;-115.352;2023-03-14T07:00:15;84896.40;;;20.60
76394;BMP180;65216;51.090;-115.352;2023-03-14T07:02:47;84885.80;;;20.54
76394;BMP180;65216;51.090;-115.352;2023-03-14T07:05:15;84879.40;;;20.50
76394;BMP180;65216;51.090;-115.352;2023-03-14T07:07:42;84870.40;;;20.50
76394;BMP180;65216;51.090;-115.352;2023-03-14T07:10:12;84874.80;;;20.50
76394;BMP180;65216;51.090;-115.352;2023-03-14T07:12:45;84882.20;;;20.50
76394;BMP180;65216;51.090;-115.352;2023-03-14T07:15:17;84887.60;;;20.50
76394;BMP180;65216;51.090;-115.352;2023-03-14T07:17:45;84887.20;;;20.50
76394;BMP180;65216;51.090;-115.352;2023-03-14T07:20:16;84905.60;;;20.50
76394;BMP180;65216;51.090;-115.352;2023-03-14T07:22:43;84900.20;;;20.50
76394;BMP180;65216;51.090;-115.352;2023-03-14T07:25:10;84896.00;;;20.40
76394;BMP180;65216;51.090;-115.352;2023-03-14T07:27:43;84893.60;;;20.40
76394;BMP180;65216;51.090;-115.352;2023-03-14T07:30:14;84892.40;;;20.40
76394;BMP180;65216;51.090;-115.352;2023-03-14T07:32:41;84888.00;;;20.40
76394;BMP180;65216;51.090;-115.352;2023-03-14T07:35:10;84885.60;;;20.40
76394;BMP180;65216;51.090;-115.352;2023-03-14T07:37:41;84879.60;;;20.38
76394;BMP180;65216;51.090;-115.352;2023-03-14T07:40:12;84883.00;;;20.32
76394;BMP180;65216;51.090;-115.352;2023-03-14T07:42:43;84861.60;;;20.34
76394;BMP180;65216;51.090;-115.352;2023-03-14T07:45:11;84893.00;;;20.30
76394;BMP180;65216;51.090;-115.352;2023-03-14T07:47:41;84850.20;;;20.30
76394;BMP180;65216;51.090;-115.352;2023-03-14T07:50:09;84878.80;;;20.30
76394;BMP180;65216;51.090;-115.352;2023-03-14T07:52:37;84858.00;;;20.30
76394;BMP180;65216;51.090;-115.352;2023-03-14T07:55:07;84908.40;;;20.30
76394;BMP180;65216;51.090;-115.352;2023-03-14T07:57:35;84873.80;;;20.30
76394;BMP180;65216;51.090;-115.352;2023-03-14T08:00:05;84920.00;;;20.30
76394;BMP180;65216;51.090;-115.352;2023-03-14T08:02:34;84913.40;;;20.30
76394;BMP180;65216;51.090;-115.352;2023-03-14T08:05:04;84904.40;;;20.30
76394;BMP180;65216;51.090;-115.352;2023-03-14T08:07:34;84917.80;;;20.26
76394;BMP180;65216;51.090;-115.352;2023-03-14T08:10:01;84933.80;;;20.26
76394;BMP180;65216;51.090;-115.352;2023-03-14T08:12:32;84937.20;;;20.28
76394;BMP180;65216;51.090;-115.352;2023-03-14T08:14:59;84921.80;;;20.26
76394;BMP180;65216;51.090;-115.352;2023-03-14T08:17:32;84934.00;;;20.30
76394;BMP180;65216;51.090;-115.352;2023-03-14T08:20:05;84949.80;;;20.30
76394;BMP180;65216;51.090;-115.352;2023-03-14T08:22:37;84944.00;;;20.30
76394;BMP180;65216;51.090;-115.352;2023-03-14T08:25:08;84932.80;;;20.30
76394;BMP180;65216;51.090;-115.352;2023-03-14T08:27:37;84956.60;;;20.30
76394;BMP180;65216;51.090;-115.352;2023-03-14T08:30:11;84965.80;;;20.30
76394;BMP180;65216;51.090;-115.352;2023-03-14T08:32:41;84990.00;;;20.30
76394;BMP180;65216;51.090;-115.352;2023-03-14T08:35:13;85002.60;;;20.30
76394;BMP180;65216;51.090;-115.352;2023-03-14T08:37:47;85014.40;;;20.30
76394;BMP180;65216;51.090;-115.352;2023-03-14T08:40:14;85033.00;;;20.30
76394;BMP180;65216;51.090;-115.352;2023-03-14T08:42:47;85060.20;;;20.30
76394;BMP180;65216;51.090;-115.352;2023-03-14T08:45:17;85074.60;;;20.30
76394;BMP180;65216;51.090;-115.352;2023-03-14T08:47:45;85085.80;;;20.30
76394;BMP180;65216;51.090;-115.352;2023-03-14T08:50:15;85092.40;;;20.30
76394;BMP180;65216;51.090;-115.352;2023-03-14T08:52:42;85102.20;;;20.30
76394;BMP180;65216;51.090;-115.352;2023-03-14T08:55:14;85123.00;;;20.30
76394;BMP180;65216;51.090;-115.352;2023-03-14T08:57:41;85121.40;;;20.30
76394;BMP180;65216;51.090;-115.352;2023-03-14T09:00:09;85148.60;;;20.30
76394;BMP180;65216;51.090;-115.352;2023-03-14T09:02:44;85152.20;;;20.30
76394;BMP180;65216;51.090;-115.352;2023-03-14T09:05:14;85150.00;;;20.30
76394;BMP180;65216;51.090;-115.352;2023-03-14T09:07:44;85159.40;;;20.30
76394;BMP180;65216;51.090;-115.352;2023-03-14T09:10:14;85165.40;;;20.30
76394;BMP180;65216;51.090;-115.352;2023-03-14T09:12:44;85174.00;;;20.30
76394;BMP180;65216;51.090;-115.352;2023-03-14T09:15:14;85196.40;;;20.30
76394;BMP180;65216;51.090;-115.352;2023-03-14T09:17:46;85203.00;;;20.30
76394;BMP180;65216;51.090;-115.352;2023-03-14T09:20:13;85195.60;;;20.28
76394;BMP180;65216;51.090;-115.352;2023-03-14T09:22:41;85199.40;;;20.24
76394;BMP180;65216;51.090;-115.352;2023-03-14T09:25:11;85200.00;;;20.22
76394;BMP180;65216;51.090;-115.352;2023-03-14T09:27:39;85203.60;;;20.24
76394;BMP180;65216;51.090;-115.352;2023-03-14T09:30:10;85208.40;;;20.20
76394;BMP180;65216;51.090;-115.352;2023-03-14T09:32:37;85224.20;;;20.20
76394;BMP180;65216;51.090;-115.352;2023-03-14T09:35:09;85229.20;;;20.20
76394;BMP180;65216;51.090;-115.352;2023-03-14T09:37:36;85235.80;;;20.20
76394;BMP180;65216;51.090;-115.352;2023-03-14T09:40:05;85236.20;;;20.20
76394;BMP180;65216;51.090;-115.352;2023-03-14T09:42:38;85245.20;;;20.20
76394;BMP180;65216;51.090;-115.352;2023-03-14T09:47:48;85257.00;;;20.20
76394;BMP180;65216;51.090;-115.352;2023-03-14T09:50:16;85263.00;;;20.20
76394;BMP180;65216;51.090;-115.352;2023-03-14T09:52:49;85260.80;;;20.20
76394;BMP180;65216;51.090;-115.352;2023-03-14T09:55:24;85260.40;;;20.20
76394;BMP180;65216;51.090;-115.352;2023-03-14T09:58:02;85257.20;;;20.20
76394;BMP180;65216;51.090;-115.352;2023-03-14T10:00:32;85265.00;;;20.20
76394;BMP180;65216;51.090;-115.352;2023-03-14T10:03:36;85266.40;;;20.20
76394;BMP180;65216;51.090;-115.352;2023-03-14T10:06:11;85272.80;;;20.20
76394;BMP180;65216;51.090;-115.352;2023-03-14T10:08:46;85265.80;;;20.20
76394;BMP180;65216;51.090;-115.352;2023-03-14T10:11:20;85279.40;;;20.18
76394;BMP180;65216;51.090;-115.352;2023-03-14T10:14:10;85278.80;;;20.14
76394;BMP180;65216;51.090;-115.352;2023-03-14T10:16:46;85278.00;;;20.10
76394;BMP180;65216;51.090;-115.352;2023-03-14T10:19:16;85287.00;;;20.10
76394;BMP180;65216;51.090;-115.352;2023-03-14T10:21:53;85278.20;;;20.10
76394;BMP180;65216;51.090;-115.352;2023-03-14T10:24:30;85274.20;;;20.10
76394;BMP180;65216;51.090;-115.352;2023-03-14T10:27:05;85273.60;;;20.10
76394;BMP180;65216;51.090;-115.352;2023-03-14T10:29:34;85282.40;;;20.10
76394;BMP180;65216;51.090;-115.352;2023-03-14T10:32:05;85285.60;;;20.10
76394;BMP180;65216;51.090;-115.352;2023-03-14T10:34:39;85272.20;;;20.08
76394;BMP180;65216;51.090;-115.352;2023-03-14T10:37:26;85268.40;;;20.04
76394;BMP180;65216;51.090;-115.352;2023-03-14T10:40:03;85278.20;;;20.04
76394;BMP180;65216;51.090;-115.352;2023-03-14T10:42:42;85279.40;;;20.00
76394;BMP180;65216;51.090;-115.352;2023-03-14T10:45:44;85281.20;;;20.00
76394;BMP180;65216;51.090;-115.352;2023-03-14T10:48:31;85283.40;;;20.00
76394;BMP180;65216;51.090;-115.352;2023-03-14T10:54:22;85300.40;;;20.00
76394;BMP180;65216;51.090;-115.352;2023-03-14T10:57:00;85301.40;;;20.00
76394;BMP180;65216;51.090;-115.352;2023-03-14T10:59:41;85305.60;;;20.00
76394;BMP180;65216;51.090;-115.352;2023-03-14T11:11:07;85314.60;;;19.90
76394;BMP180;65216;51.090;-115.352;2023-03-14T11:14:14;85320.00;;;19.90
76394;BMP180;65216;51.090;-115.352;2023-03-14T11:17:34;85312.00;;;19.90
76394;BMP180;65216;51.090;-115.352;2023-03-14T11:23:39;85329.40;;;19.90
76394;BMP180;65216;51.090;-115.352;2023-03-14T11:31:59;85349.80;;;19.98
76394;BMP180;65216;51.090;-115.352;2023-03-14T11:34:34;85350.20;;;19.96
76394;BMP180;65216;51.090;-115.352;2023-03-14T11:37:34;85352.20;;;19.90
76394;BMP180;65216;51.090;-115.352;2023-03-14T11:40:25;85359.80;;;19.90
76394;BMP180;65216;51.090;-115.352;2023-03-14T11:43:23;85370.80;;;19.92
76394;BMP180;65216;51.090;-115.352;2023-03-14T11:46:01;85372.60;;;19.96
76394;BMP180;65216;51.090;-115.352;2023-03-14T11:51:34;85393.60;;;19.98
76394;BMP180;65216;51.090;-115.352;2023-03-14T11:54:19;85390.20;;;20.00
76394;BMP180;65216;51.090;-115.352;2023-03-14T11:57:01;85405.60;;;19.98
76394;BMP180;65216;51.090;-115.352;2023-03-14T12:00:05;85405.80;;;19.98
76394;BMP180;65216;51.090;-115.352;2023-03-14T12:03:13;85428.00;;;20.00
76394;BMP180;65216;51.090;-115.352;2023-03-14T12:08:59;85431.20;;;20.00
76394;BMP180;65216;51.090;-115.352;2023-03-14T12:14:01;85442.40;;;20.00
76394;BMP180;65216;51.090;-115.352;2023-03-14T12:16:40;85446.20;;;20.00
76394;BMP180;65216;51.090;-115.352;2023-03-14T12:24:27;85457.80;;;20.00
76394;BMP180;65216;51.090;-115.352;2023-03-14T12:27:01;85454.40;;;20.00
76394;BMP180;65216;51.090;-115.352;2023-03-14T12:29:32;85465.00;;;20.00
76394;BMP180;65216;51.090;-115.352;2023-03-14T12:34:43;85485.20;;;20.00
76394;BMP180;65216;51.090;-115.352;2023-03-14T12:37:37;85486.80;;;20.00
76394;BMP180;65216;51.090;-115.352;2023-03-14T12:40:26;85495.80;;;20.00
76394;BMP180;65216;51.090;-115.352;2023-03-14T12:43:03;85523.20;;;20.00
76394;BMP180;65216;51.090;-115.352;2023-03-14T12:45:35;85508.80;;;20.00
76394;BMP180;65216;51.090;-115.352;2023-03-14T12:48:24;85512.80;;;20.00
76394;BMP180;65216;51.090;-115.352;2023-03-14T12:51:03;85530.60;;;20.00
76394;BMP180;65216;51.090;-115.352;2023-03-14T12:54:07;85540.20;;;20.00
76394;BMP180;65216;51.090;-115.352;2023-03-14T13:00:13;85550.40;;;20.00
76394;BMP180;65216;51.090;-115.352;2023-03-14T13:02:45;85545.20;;;20.00
76394;BMP180;65216;51.090;-115.352;2023-03-14T13:05:28;85536.80;;;20.00
76394;BMP180;65216;51.090;-115.352;2023-03-14T13:10:49;85562.40;;;20.00
76394;BMP180;65216;51.090;-115.352;2023-03-14T13:13:25;85566.00;;;20.00
76394;BMP180;65216;51.090;-115.352;2023-03-14T13:16:03;85575.00;;;20.00
76394;BMP180;65216;51.090;-115.352;2023-03-14T13:21:16;85587.20;;;20.00
76394;BMP180;65216;51.090;-115.352;2023-03-14T13:24:07;85597.00;;;20.00
76394;BMP180;65216;51.090;-115.352;2023-03-14T13:26:45;85601.40;;;20.00
76394;BMP180;65216;51.090;-115.352;2023-03-14T13:29:31;85596.20;;;20.00
76394;BMP180;65216;51.090;-115.352;2023-03-14T13:32:26;85613.60;;;20.00
76394;BMP180;65216;51.090;-115.352;2023-03-14T13:35:00;85615.40;;;20.00
76394;BMP180;65216;51.090;-115.352;2023-03-14T13:37:30;85607.00;;;20.00
76394;BMP180;65216;51.090;-115.352;2023-03-14T13:39:58;85600.80;;;20.00
76394;BMP180;65216;51.090;-115.352;2023-03-14T13:42:29;85610.80;;;20.00
76394;BMP180;65216;51.090;-115.352;2023-03-14T13:44:57;85607.20;;;20.00
76394;BMP180;65216;51.090;-115.352;2023-03-14T13:47:26;85619.40;;;20.00
76394;BMP180;65216;51.090;-115.352;2023-03-14T13:49:54;85637.60;;;20.00
76394;BMP180;65216;51.090;-115.352;2023-03-14T13:52:37;85658.20;;;20.00
76394;BMP180;65216;51.090;-115.352;2023-03-14T13:55:13;85673.40;;;20.00
76394;BMP180;65216;51.090;-115.352;2023-03-14T13:57:52;85679.80;;;20.00
76394;BMP180;65216;51.090;-115.352;2023-03-14T14:00:29;85690.60;;;20.00
76394;BMP180;65216;51.090;-115.352;2023-03-14T14:02:59;85696.60;;;20.00
76394;BMP180;65216;51.090;-115.352;2023-03-14T14:05:31;85699.40;;;20.00
76394;BMP180;65216;51.090;-115.352;2023-03-14T14:08:03;85697.00;;;20.00
76394;BMP180;65216;51.090;-115.352;2023-03-14T14:10:31;85705.40;;;20.00
76394;BMP180;65216;51.090;-115.352;2023-03-14T14:13:10;85699.40;;;20.00
76394;BMP180;65216;51.090;-115.352;2023-03-14T14:15:46;85703.00;;;20.00
76394;BMP180;65216;51.090;-115.352;2023-03-14T14:18:19;85727.40;;;20.00
76394;BMP180;65216;51.090;-115.352;2023-03-14T14:20:50;85713.80;;;20.00
76394;BMP180;65216;51.090;-115.352;2023-03-14T14:23:26;85714.60;;;20.00
76394;BMP180;65216;51.090;-115.352;2023-03-14T14:25:59;85710.60;;;20.00
76394;BMP180;65216;51.090;-115.352;2023-03-14T14:28:36;85726.40;;;20.00
76394;BMP180;65216;51.090;-115.352;2023-03-14T14:31:25;85729.80;;;20.00
76394;BMP180;65216;51.090;-115.352;2023-03-14T14:34:01;85731.80;;;20.00
76394;BMP180;65216;51.090;-115.352;2023-03-14T14:36:39;85724.40;;;20.00
76394;BMP180;65216;51.090;-115.352;2023-03-14T14:39:21;85716.60;;;20.00
76394;BMP180;65216;51.090;-115.352;2023-03-14T14:41:51;85743.20;;;20.10
76394;BMP180;65216;51.090;-115.352;2023-03-14T14:44:36;85732.40;;;20.10
76394;BMP180;65216;51.090;-115.352;2023-03-14T14:47:04;85727.00;;;20.10
76394;BMP180;65216;51.090;-115.352;2023-03-14T14:49:35;85735.00;;;20.10
76394;BMP180;65216;51.090;-115.352;2023-03-14T14:52:19;85749.20;;;20.10
76394;BMP180;65216;51.090;-115.352;2023-03-14T14:54:57;85746.20;;;20.10
76394;BMP180;65216;51.090;-115.352;2023-03-14T14:57:37;85749.20;;;20.10
76394;BMP180;65216;51.090;-115.352;2023-03-14T15:00:21;85753.80;;;20.10